Terminal Aerodrome Forecast
Issued by NWS Portland, OR

Home | Current Version | Previous Version | Text Only | Print | Product List | Glossary On
Versions: 1 2 3 4 5 6 7 8 9 10 11 12 13 14 15 16 17 18 19 20 21 22 23 24 25 26
000
FTUS46 KPQR 211737
TAFEUG
TAF
KEUG 211737Z 2118/2218 17015KT P6SM VCSH BKN040 BKN080
     FM211900 19014KT 5SM -RA BKN025 OVC040
     FM220000 18006KT P6SM BKN100
     FM221000 13013KT P6SM -RA SCT025 OVC040=

USA.gov is the U.S. government's official web portal to all federal, state and local government web resources and services.